sensor_id;sensor_type;location;lat;lon;timestamp;P1;durP1;ratioP1;P2;durP2;ratioP2
9665;SDS011;4871;52.004;5.924;2022-12-29T00:00:00;2.80;;;2.50;;
9665;SDS011;4871;52.004;5.924;2022-12-29T00:01:01;2.80;;;2.50;;
9665;SDS011;4871;52.004;5.924;2022-12-29T00:02:01;2.80;;;2.50;;
9665;SDS011;4871;52.004;5.924;2022-12-29T00:03:00;2.80;;;2.50;;
9665;SDS011;4871;52.004;5.924;2022-12-29T00:04:00;2.80;;;2.50;;
9665;SDS011;4871;52.004;5.924;2022-12-29T00:05:01;2.80;;;2.50;;
9665;SDS011;4871;52.004;5.924;2022-12-29T00:06:01;2.80;;;2.50;;
9665;SDS011;4871;52.004;5.924;2022-12-29T00:07:04;2.80;;;2.50;;
9665;SDS011;4871;52.004;5.924;2022-12-29T00:08:00;2.80;;;2.50;;
9665;SDS011;4871;52.004;5.924;2022-12-29T00:09:02;2.80;;;2.50;;
9665;SDS011;4871;52.004;5.924;2022-12-29T00:10:00;2.80;;;2.50;;
9665;SDS011;4871;52.004;5.924;2022-12-29T00:11:01;2.80;;;2.50;;
9665;SDS011;4871;52.004;5.924;2022-12-29T00:12:00;2.80;;;2.50;;
9665;SDS011;4871;52.004;5.924;2022-12-29T00:13:11;2.80;;;2.50;;
9665;SDS011;4871;52.004;5.924;2022-12-29T00:14:10;2.80;;;2.50;;
9665;SDS011;4871;52.004;5.924;2022-12-29T00:15:10;2.80;;;2.50;;
9665;SDS011;4871;52.004;5.924;2022-12-29T00:16:00;2.80;;;2.50;;
9665;SDS011;4871;52.004;5.924;2022-12-29T00:17:02;2.80;;;2.50;;
9665;SDS011;4871;52.004;5.924;2022-12-29T00:18:00;2.80;;;2.50;;
9665;SDS011;4871;52.004;5.924;2022-12-29T00:19:02;2.80;;;2.50;;
9665;SDS011;4871;52.004;5.924;2022-12-29T00:20:10;2.80;;;2.50;;
9665;SDS011;4871;52.004;5.924;2022-12-29T00:21:15;2.80;;;2.50;;
9665;SDS011;4871;52.004;5.924;2022-12-29T00:22:13;2.80;;;2.50;;
9665;SDS011;4871;52.004;5.924;2022-12-29T00:23:10;2.80;;;2.50;;
9665;SDS011;4871;52.004;5.924;2022-12-29T00:24:13;2.80;;;2.50;;
9665;SDS011;4871;52.004;5.924;2022-12-29T00:25:01;2.80;;;2.50;;
9665;SDS011;4871;52.004;5.924;2022-12-29T00:26:14;2.90;;;2.60;;
9665;SDS011;4871;52.004;5.924;2022-12-29T00:27:11;2.90;;;2.60;;
9665;SDS011;4871;52.004;5.924;2022-12-29T00:28:12;2.90;;;2.60;;
9665;SDS011;4871;52.004;5.924;2022-12-29T00:29:10;2.90;;;2.60;;
9665;SDS011;4871;52.004;5.924;2022-12-29T00:30:12;2.90;;;2.60;;
9665;SDS011;4871;52.004;5.924;2022-12-29T00:31:11;2.90;;;2.60;;
9665;SDS011;4871;52.004;5.924;2022-12-29T00:32:17;2.90;;;2.60;;
9665;SDS011;4871;52.004;5.924;2022-12-29T00:33:11;2.90;;;2.60;;
9665;SDS011;4871;52.004;5.924;2022-12-29T00:34:11;2.90;;;2.60;;
9665;SDS011;4871;52.004;5.924;2022-12-29T00:35:11;2.90;;;2.60;;
9665;SDS011;4871;52.004;5.924;2022-12-29T00:36:04;2.90;;;2.60;;
9665;SDS011;4871;52.004;5.924;2022-12-29T00:37:00;2.90;;;2.60;;
9665;SDS011;4871;52.004;5.924;2022-12-29T00:38:11;2.90;;;2.60;;
9665;SDS011;4871;52.004;5.924;2022-12-29T00:39:12;2.90;;;2.60;;
9665;SDS011;4871;52.004;5.924;2022-12-29T00:40:11;2.90;;;2.60;;
9665;SDS011;4871;52.004;5.924;2022-12-29T00:41:10;2.90;;;2.60;;
9665;SDS011;4871;52.004;5.924;2022-12-29T00:42:11;2.90;;;2.60;;
9665;SDS011;4871;52.004;5.924;2022-12-29T00:43:10;2.90;;;2.60;;
9665;SDS011;4871;52.004;5.924;2022-12-29T00:44:05;2.90;;;2.60;;
9665;SDS011;4871;52.004;5.924;2022-12-29T00:45:00;2.90;;;2.60;;
9665;SDS011;4871;52.004;5.924;2022-12-29T00:46:03;2.90;;;2.60;;
9665;SDS011;4871;52.004;5.924;2022-12-29T00:47:04;2.90;;;2.60;;
9665;SDS011;4871;52.004;5.924;2022-12-29T00:48:04;2.90;;;2.60;;
9665;SDS011;4871;52.004;5.924;2022-12-29T00:49:11;2.90;;;2.60;;
9665;SDS011;4871;52.004;5.924;2022-12-29T00:50:03;2.90;;;2.60;;
9665;SDS011;4871;52.004;5.924;2022-12-29T00:51:00;2.90;;;2.60;;
9665;SDS011;4871;52.004;5.924;2022-12-29T00:52:03;2.90;;;2.60;;
9665;SDS011;4871;52.004;5.924;2022-12-29T00:53:00;2.90;;;2.60;;
9665;SDS011;4871;52.004;5.924;2022-12-29T00:54:00;2.90;;;2.60;;
9665;SDS011;4871;52.004;5.924;2022-12-29T00:55:03;2.90;;;2.60;;
9665;SDS011;4871;52.004;5.924;2022-12-29T00:56:00;2.40;;;2.20;;
9665;SDS011;4871;52.004;5.924;2022-12-29T00:57:02;2.40;;;2.20;;
9665;SDS011;4871;52.004;5.924;2022-12-29T00:58:00;2.40;;;2.20;;
9665;SDS011;4871;52.004;5.924;2022-12-29T00:59:09;2.40;;;2.20;;
9665;SDS011;4871;52.004;5.924;2022-12-29T01:00:00;2.40;;;2.20;;
9665;SDS011;4871;52.004;5.924;2022-12-29T01:01:06;2.40;;;2.20;;
9665;SDS011;4871;52.004;5.924;2022-12-29T01:02:00;2.40;;;2.20;;
9665;SDS011;4871;52.004;5.924;2022-12-29T01:03:02;2.40;;;2.20;;
9665;SDS011;4871;52.004;5.924;2022-12-29T01:04:00;2.40;;;2.20;;
9665;SDS011;4871;52.004;5.924;2022-12-29T01:05:02;2.40;;;2.20;;
9665;SDS011;4871;52.004;5.924;2022-12-29T01:06:00;2.40;;;2.20;;
9665;SDS011;4871;52.004;5.924;2022-12-29T01:07:03;2.40;;;2.20;;
9665;SDS011;4871;52.004;5.924;2022-12-29T01:08:00;2.40;;;2.20;;
9665;SDS011;4871;52.004;5.924;2022-12-29T01:09:12;2.40;;;2.20;;
9665;SDS011;4871;52.004;5.924;2022-12-29T01:10:10;2.40;;;2.20;;
9665;SDS011;4871;52.004;5.924;2022-12-29T01:11:08;2.40;;;2.20;;
9665;SDS011;4871;52.004;5.924;2022-12-29T01:12:00;2.40;;;2.20;;
9665;SDS011;4871;52.004;5.924;2022-12-29T01:13:01;2.40;;;2.20;;
9665;SDS011;4871;52.004;5.924;2022-12-29T01:14:00;2.40;;;2.20;;
9665;SDS011;4871;52.004;5.924;2022-12-29T01:15:00;2.40;;;2.20;;
9665;SDS011;4871;52.004;5.924;2022-12-29T01:16:02;2.40;;;2.20;;
9665;SDS011;4871;52.004;5.924;2022-12-29T01:17:00;2.40;;;2.20;;
9665;SDS011;4871;52.004;5.924;2022-12-29T01:18:01;2.40;;;2.20;;
9665;SDS011;4871;52.004;5.924;2022-12-29T01:19:00;2.40;;;2.20;;
9665;SDS011;4871;52.004;5.924;2022-12-29T01:20:03;2.40;;;2.20;;
9665;SDS011;4871;52.004;5.924;2022-12-29T01:21:00;2.40;;;2.20;;
9665;SDS011;4871;52.004;5.924;2022-12-29T01:22:01;2.40;;;2.20;;
9665;SDS011;4871;52.004;5.924;2022-12-29T01:23:00;2.40;;;2.20;;
9665;SDS011;4871;52.004;5.924;2022-12-29T01:24:02;2.40;;;2.20;;
9665;SDS011;4871;52.004;5.924;2022-12-29T01:25:00;2.40;;;2.20;;
9665;SDS011;4871;52.004;5.924;2022-12-29T01:26:09;1.80;;;1.70;;
9665;SDS011;4871;52.004;5.924;2022-12-29T01:27:00;1.80;;;1.70;;
9665;SDS011;4871;52.004;5.924;2022-12-29T01:28:01;1.80;;;1.70;;
9665;SDS011;4871;52.004;5.924;2022-12-29T01:29:00;1.80;;;1.70;;
9665;SDS011;4871;52.004;5.924;2022-12-29T01:30:01;1.80;;;1.70;;
9665;SDS011;4871;52.004;5.924;2022-12-29T01:31:00;1.80;;;1.70;;
9665;SDS011;4871;52.004;5.924;2022-12-29T01:32:01;1.80;;;1.70;;
9665;SDS011;4871;52.004;5.924;2022-12-29T01:33:00;1.80;;;1.70;;
9665;SDS011;4871;52.004;5.924;2022-12-29T01:34:01;1.80;;;1.70;;
9665;SDS011;4871;52.004;5.924;2022-12-29T01:35:00;1.80;;;1.70;;
9665;SDS011;4871;52.004;5.924;2022-12-29T01:36:03;1.80;;;1.70;;
9665;SDS011;4871;52.004;5.924;2022-12-29T01:37:00;1.80;;;1.70;;
9665;SDS011;4871;52.004;5.924;2022-12-29T01:38:01;1.80;;;1.70;;
9665;SDS011;4871;52.004;5.924;2022-12-29T01:39:00;1.80;;;1.70;;
9665;SDS011;4871;52.004;5.924;2022-12-29T01:40:02;1.80;;;1.70;;
9665;SDS011;4871;52.004;5.924;2022-12-29T01:41:00;1.80;;;1.70;;
9665;SDS011;4871;52.004;5.924;2022-12-29T01:42:00;1.80;;;1.70;;
9665;SDS011;4871;52.004;5.924;2022-12-29T01:43:00;1.80;;;1.70;;
9665;SDS011;4871;52.004;5.924;2022-12-29T01:44:01;1.80;;;1.70;;
9665;SDS011;4871;52.004;5.924;2022-12-29T01:45:02;1.80;;;1.70;;
9665;SDS011;4871;52.004;5.924;2022-12-29T01:46:01;1.80;;;1.70;;
9665;SDS011;4871;52.004;5.924;2022-12-29T01:47:00;1.80;;;1.70;;
9665;SDS011;4871;52.004;5.924;2022-12-29T01:48:01;1.80;;;1.70;;
9665;SDS011;4871;52.004;5.924;2022-12-29T01:50:04;1.80;;;1.70;;
9665;SDS011;4871;52.004;5.924;2022-12-29T01:51:00;1.80;;;1.70;;
9665;SDS011;4871;52.004;5.924;2022-12-29T01:52:08;1.80;;;1.70;;
9665;SDS011;4871;52.004;5.924;2022-12-29T01:53:02;1.80;;;1.70;;
9665;SDS011;4871;52.004;5.924;2022-12-29T01:54:02;1.80;;;1.70;;
9665;SDS011;4871;52.004;5.924;2022-12-29T01:55:00;1.80;;;1.70;;
9665;SDS011;4871;52.004;5.924;2022-12-29T01:56:04;2.00;;;1.40;;
9665;SDS011;4871;52.004;5.924;2022-12-29T01:57:01;2.00;;;1.40;;
9665;SDS011;4871;52.004;5.924;2022-12-29T01:58:02;2.00;;;1.40;;
9665;SDS011;4871;52.004;5.924;2022-12-29T01:59:02;2.00;;;1.40;;
9665;SDS011;4871;52.004;5.924;2022-12-29T02:00:05;2.00;;;1.40;;
9665;SDS011;4871;52.004;5.924;2022-12-29T02:01:00;2.00;;;1.40;;
9665;SDS011;4871;52.004;5.924;2022-12-29T02:02:01;2.00;;;1.40;;
9665;SDS011;4871;52.004;5.924;2022-12-29T02:03:00;2.00;;;1.40;;
9665;SDS011;4871;52.004;5.924;2022-12-29T02:04:01;2.00;;;1.40;;
9665;SDS011;4871;52.004;5.924;2022-12-29T02:05:03;2.00;;;1.40;;
9665;SDS011;4871;52.004;5.924;2022-12-29T02:07:02;2.00;;;1.40;;
9665;SDS011;4871;52.004;5.924;2022-12-29T02:08:02;2.00;;;1.40;;
9665;SDS011;4871;52.004;5.924;2022-12-29T02:09:00;2.00;;;1.40;;
9665;SDS011;4871;52.004;5.924;2022-12-29T02:10:02;2.00;;;1.40;;
9665;SDS011;4871;52.004;5.924;2022-12-29T02:11:00;2.00;;;1.40;;
9665;SDS011;4871;52.004;5.924;2022-12-29T02:12:01;2.00;;;1.40;;
9665;SDS011;4871;52.004;5.924;2022-12-29T02:13:00;2.00;;;1.40;;
9665;SDS011;4871;52.004;5.924;2022-12-29T02:14:07;2.00;;;1.40;;
9665;SDS011;4871;52.004;5.924;2022-12-29T02:15:00;2.00;;;1.40;;
9665;SDS011;4871;52.004;5.924;2022-12-29T02:18:11;2.00;;;1.40;;
9665;SDS011;4871;52.004;5.924;2022-12-29T02:22:05;2.00;;;1.40;;
9665;SDS011;4871;52.004;5.924;2022-12-29T02:25:09;2.00;;;1.40;;
9665;SDS011;4871;52.004;5.924;2022-12-29T02:26:07;1.90;;;1.20;;
9665;SDS011;4871;52.004;5.924;2022-12-29T02:28:09;1.90;;;1.20;;
9665;SDS011;4871;52.004;5.924;2022-12-29T02:35:01;1.90;;;1.20;;
9665;SDS011;4871;52.004;5.924;2022-12-29T02:36:07;1.90;;;1.20;;
9665;SDS011;4871;52.004;5.924;2022-12-29T02:39:04;1.90;;;1.20;;
9665;SDS011;4871;52.004;5.924;2022-12-29T02:44:20;1.90;;;1.20;;
9665;SDS011;4871;52.004;5.924;2022-12-29T02:45:03;1.90;;;1.20;;
9665;SDS011;4871;52.004;5.924;2022-12-29T02:46:04;1.90;;;1.20;;
9665;SDS011;4871;52.004;5.924;2022-12-29T02:47:04;1.90;;;1.20;;
9665;SDS011;4871;52.004;5.924;2022-12-29T02:50:02;1.90;;;1.20;;
9665;SDS011;4871;52.004;5.924;2022-12-29T02:51:01;1.90;;;1.20;;
9665;SDS011;4871;52.004;5.924;2022-12-29T02:52:07;1.90;;;1.20;;
9665;SDS011;4871;52.004;5.924;2022-12-29T02:53:01;1.90;;;1.20;;
9665;SDS011;4871;52.004;5.924;2022-12-29T02:54:16;1.90;;;1.20;;
9665;SDS011;4871;52.004;5.924;2022-12-29T02:55:00;1.90;;;1.20;;
9665;SDS011;4871;52.004;5.924;2022-12-29T02:56:03;1.10;;;0.90;;
9665;SDS011;4871;52.004;5.924;2022-12-29T02:57:00;1.10;;;0.90;;
9665;SDS011;4871;52.004;5.924;2022-12-29T02:58:12;1.10;;;0.90;;
9665;SDS011;4871;52.004;5.924;2022-12-29T02:59:00;1.10;;;0.90;;
9665;SDS011;4871;52.004;5.924;2022-12-29T03:00:05;1.10;;;0.90;;
9665;SDS011;4871;52.004;5.924;2022-12-29T03:01:06;1.10;;;0.90;;
9665;SDS011;4871;52.004;5.924;2022-12-29T03:03:06;1.10;;;0.90;;
9665;SDS011;4871;52.004;5.924;2022-12-29T03:06:09;1.10;;;0.90;;
9665;SDS011;4871;52.004;5.924;2022-12-29T03:07:04;1.10;;;0.90;;
9665;SDS011;4871;52.004;5.924;2022-12-29T03:08:07;1.10;;;0.90;;
9665;SDS011;4871;52.004;5.924;2022-12-29T03:09:04;1.10;;;0.90;;
9665;SDS011;4871;52.004;5.924;2022-12-29T03:10:23;1.10;;;0.90;;
9665;SDS011;4871;52.004;5.924;2022-12-29T03:12:27;1.10;;;0.90;;
9665;SDS011;4871;52.004;5.924;2022-12-29T03:13:12;1.10;;;0.90;;
9665;SDS011;4871;52.004;5.924;2022-12-29T03:14:17;1.10;;;0.90;;
9665;SDS011;4871;52.004;5.924;2022-12-29T03:15:11;1.10;;;0.90;;
9665;SDS011;4871;52.004;5.924;2022-12-29T03:17:01;1.10;;;0.90;;
9665;SDS011;4871;52.004;5.924;2022-12-29T03:18:05;1.10;;;0.90;;
9665;SDS011;4871;52.004;5.924;2022-12-29T03:19:07;1.10;;;0.90;;
9665;SDS011;4871;52.004;5.924;2022-12-29T03:20:05;1.10;;;0.90;;
9665;SDS011;4871;52.004;5.924;2022-12-29T03:21:02;1.10;;;0.90;;
9665;SDS011;4871;52.004;5.924;2022-12-29T03:22:14;1.10;;;0.90;;
9665;SDS011;4871;52.004;5.924;2022-12-29T03:23:01;1.10;;;0.90;;
9665;SDS011;4871;52.004;5.924;2022-12-29T03:24:01;1.10;;;0.90;;
9665;SDS011;4871;52.004;5.924;2022-12-29T03:25:05;1.10;;;0.90;;
9665;SDS011;4871;52.004;5.924;2022-12-29T03:26:03;1.40;;;0.90;;
9665;SDS011;4871;52.004;5.924;2022-12-29T03:27:01;1.40;;;0.90;;
9665;SDS011;4871;52.004;5.924;2022-12-29T03:28:03;1.40;;;0.90;;
9665;SDS011;4871;52.004;5.924;2022-12-29T03:29:00;1.40;;;0.90;;
9665;SDS011;4871;52.004;5.924;2022-12-29T03:30:03;1.40;;;0.90;;
9665;SDS011;4871;52.004;5.924;2022-12-29T03:31:00;1.40;;;0.90;;
9665;SDS011;4871;52.004;5.924;2022-12-29T03:32:03;1.40;;;0.90;;
9665;SDS011;4871;52.004;5.924;2022-12-29T03:33:01;1.40;;;0.90;;
9665;SDS011;4871;52.004;5.924;2022-12-29T03:34:01;1.40;;;0.90;;
9665;SDS011;4871;52.004;5.924;2022-12-29T03:35:00;1.40;;;0.90;;
9665;SDS011;4871;52.004;5.924;2022-12-29T03:36:06;1.40;;;0.90;;
9665;SDS011;4871;52.004;5.924;2022-12-29T03:37:01;1.40;;;0.90;;
9665;SDS011;4871;52.004;5.924;2022-12-29T03:39:02;1.40;;;0.90;;
9665;SDS011;4871;52.004;5.924;2022-12-29T03:40:04;1.40;;;0.90;;
9665;SDS011;4871;52.004;5.924;2022-12-29T03:41:00;1.40;;;0.90;;
9665;SDS011;4871;52.004;5.924;2022-12-29T03:42:03;1.40;;;0.90;;
9665;SDS011;4871;52.004;5.924;2022-12-29T03:43:01;1.40;;;0.90;;
9665;SDS011;4871;52.004;5.924;2022-12-29T03:44:02;1.40;;;0.90;;
9665;SDS011;4871;52.004;5.924;2022-12-29T03:45:00;1.40;;;0.90;;
9665;SDS011;4871;52.004;5.924;2022-12-29T03:46:02;1.40;;;0.90;;
9665;SDS011;4871;52.004;5.924;2022-12-29T03:47:00;1.40;;;0.90;;
9665;SDS011;4871;52.004;5.924;2022-12-29T03:48:02;1.40;;;0.90;;
9665;SDS011;4871;52.004;5.924;2022-12-29T03:49:00;1.40;;;0.90;;
9665;SDS011;4871;52.004;5.924;2022-12-29T03:50:04;1.40;;;0.90;;
9665;SDS011;4871;52.004;5.924;2022-12-29T03:51:00;1.40;;;0.90;;
9665;SDS011;4871;52.004;5.924;2022-12-29T03:52:03;1.40;;;0.90;;
9665;SDS011;4871;52.004;5.924;2022-12-29T03:53:00;1.40;;;0.90;;
9665;SDS011;4871;52.004;5.924;2022-12-29T03:54:02;1.40;;;0.90;;
9665;SDS011;4871;52.004;5.924;2022-12-29T03:55:00;1.40;;;0.90;;
9665;SDS011;4871;52.004;5.924;2022-12-29T03:56:01;2.40;;;0.90;;
9665;SDS011;4871;52.004;5.924;2022-12-29T03:57:00;2.40;;;0.90;;
9665;SDS011;4871;52.004;5.924;2022-12-29T03:58:01;2.40;;;0.90;;
9665;SDS011;4871;52.004;5.924;2022-12-29T03:59:00;2.40;;;0.90;;
9665;SDS011;4871;52.004;5.924;2022-12-29T04:00:02;2.40;;;0.90;;
9665;SDS011;4871;52.004;5.924;2022-12-29T04:01:00;2.40;;;0.90;;
9665;SDS011;4871;52.004;5.924;2022-12-29T04:02:06;2.40;;;0.90;;
9665;SDS011;4871;52.004;5.924;2022-12-29T04:03:00;2.40;;;0.90;;
9665;SDS011;4871;52.004;5.924;2022-12-29T04:04:00;2.40;;;0.90;;
9665;SDS011;4871;52.004;5.924;2022-12-29T04:05:00;2.40;;;0.90;;
9665;SDS011;4871;52.004;5.924;2022-12-29T04:06:01;2.40;;;0.90;;
9665;SDS011;4871;52.004;5.924;2022-12-29T04:07:00;2.40;;;0.90;;
9665;SDS011;4871;52.004;5.924;2022-12-29T04:08:01;2.40;;;0.90;;
9665;SDS011;4871;52.004;5.924;2022-12-29T04:09:00;2.40;;;0.90;;
9665;SDS011;4871;52.004;5.924;2022-12-29T04:10:03;2.40;;;0.90;;
9665;SDS011;4871;52.004;5.924;2022-12-29T04:11:00;2.40;;;0.90;;
9665;SDS011;4871;52.004;5.924;2022-12-29T04:12:04;2.40;;;0.90;;
9665;SDS011;4871;52.004;5.924;2022-12-29T04:13:00;2.40;;;0.90;;
9665;SDS011;4871;52.004;5.924;2022-12-29T04:14:01;2.40;;;0.90;;
9665;SDS011;4871;52.004;5.924;2022-12-29T04:15:00;2.40;;;0.90;;
9665;SDS011;4871;52.004;5.924;2022-12-29T04:16:06;2.40;;;0.90;;
9665;SDS011;4871;52.004;5.924;2022-12-29T04:17:00;2.40;;;0.90;;
9665;SDS011;4871;52.004;5.924;2022-12-29T04:18:03;2.40;;;0.90;;
9665;SDS011;4871;52.004;5.924;2022-12-29T04:19:00;2.40;;;0.90;;
9665;SDS011;4871;52.004;5.924;2022-12-29T04:20:13;2.40;;;0.90;;
9665;SDS011;4871;52.004;5.924;2022-12-29T04:21:00;2.40;;;0.90;;
9665;SDS011;4871;52.004;5.924;2022-12-29T04:22:01;2.40;;;0.90;;
9665;SDS011;4871;52.004;5.924;2022-12-29T04:23:00;2.40;;;0.90;;
9665;SDS011;4871;52.004;5.924;2022-12-29T04:24:02;2.40;;;0.90;;
9665;SDS011;4871;52.004;5.924;2022-12-29T04:25:00;2.40;;;0.80;;
9665;SDS011;4871;52.004;5.924;2022-12-29T04:26:03;2.40;;;0.80;;
9665;SDS011;4871;52.004;5.924;2022-12-29T04:27:00;2.40;;;0.80;;
9665;SDS011;4871;52.004;5.924;2022-12-29T04:28:02;2.40;;;0.80;;
9665;SDS011;4871;52.004;5.924;2022-12-29T04:29:00;2.40;;;0.80;;
9665;SDS011;4871;52.004;5.924;2022-12-29T04:30:02;2.40;;;0.80;;
9665;SDS011;4871;52.004;5.924;2022-12-29T04:31:00;2.40;;;0.80;;
9665;SDS011;4871;52.004;5.924;2022-12-29T04:32:02;2.40;;;0.80;;
9665;SDS011;4871;52.004;5.924;2022-12-29T04:33:00;2.40;;;0.80;;
9665;SDS011;4871;52.004;5.924;2022-12-29T04:34:02;2.40;;;0.80;;
9665;SDS011;4871;52.004;5.924;2022-12-29T04:35:00;2.40;;;0.80;;
9665;SDS011;4871;52.004;5.924;2022-12-29T04:36:02;2.40;;;0.80;;
9665;SDS011;4871;52.004;5.924;2022-12-29T04:37:00;2.40;;;0.80;;
9665;SDS011;4871;52.004;5.924;2022-12-29T04:38:02;2.40;;;0.80;;
9665;SDS011;4871;52.004;5.924;2022-12-29T04:39:00;2.40;;;0.80;;
9665;SDS011;4871;52.004;5.924;2022-12-29T04:40:04;2.40;;;0.80;;
9665;SDS011;4871;52.004;5.924;2022-12-29T04:41:00;2.40;;;0.80;;
9665;SDS011;4871;52.004;5.924;2022-12-29T04:42:07;2.40;;;0.80;;
9665;SDS011;4871;52.004;5.924;2022-12-29T04:43:00;2.40;;;0.80;;
9665;SDS011;4871;52.004;5.924;2022-12-29T04:44:04;2.40;;;0.80;;
9665;SDS011;4871;52.004;5.924;2022-12-29T04:45:00;2.40;;;0.80;;
9665;SDS011;4871;52.004;5.924;2022-12-29T04:46:02;2.40;;;0.80;;
9665;SDS011;4871;52.004;5.924;2022-12-29T04:47:00;2.40;;;0.80;;
9665;SDS011;4871;52.004;5.924;2022-12-29T04:48:01;2.40;;;0.80;;
9665;SDS011;4871;52.004;5.924;2022-12-29T04:49:04;2.40;;;0.80;;
9665;SDS011;4871;52.004;5.924;2022-12-29T04:50:02;2.40;;;0.80;;
9665;SDS011;4871;52.004;5.924;2022-12-29T04:51:00;2.40;;;0.80;;
9665;SDS011;4871;52.004;5.924;2022-12-29T04:52:02;2.40;;;0.80;;
9665;SDS011;4871;52.004;5.924;2022-12-29T04:53:00;2.40;;;0.80;;
9665;SDS011;4871;52.004;5.924;2022-12-29T04:54:02;2.40;;;0.80;;
9665;SDS011;4871;52.004;5.924;2022-12-29T04:55:00;3.00;;;1.10;;
9665;SDS011;4871;52.004;5.924;2022-12-29T04:56:02;3.00;;;1.10;;
9665;SDS011;4871;52.004;5.924;2022-12-29T04:57:00;3.00;;;1.10;;
9665;SDS011;4871;52.004;5.924;2022-12-29T04:58:02;3.00;;;1.10;;
9665;SDS011;4871;52.004;5.924;2022-12-29T04:59:00;3.00;;;1.10;;
9665;SDS011;4871;52.004;5.924;2022-12-29T05:00:03;3.00;;;1.10;;
9665;SDS011;4871;52.004;5.924;2022-12-29T05:01:00;3.00;;;1.10;;
9665;SDS011;4871;52.004;5.924;2022-12-29T05:02:01;3.00;;;1.10;;
9665;SDS011;4871;52.004;5.924;2022-12-29T05:03:00;3.00;;;1.10;;
9665;SDS011;4871;52.004;5.924;2022-12-29T05:04:02;3.00;;;1.10;;
9665;SDS011;4871;52.004;5.924;2022-12-29T05:05:00;3.00;;;1.10;;
9665;SDS011;4871;52.004;5.924;2022-12-29T05:06:02;3.00;;;1.10;;
9665;SDS011;4871;52.004;5.924;2022-12-29T05:07:00;3.00;;;1.10;;
9665;SDS011;4871;52.004;5.924;2022-12-29T05:08:01;3.00;;;1.10;;
9665;SDS011;4871;52.004;5.924;2022-12-29T05:09:00;3.00;;;1.10;;
9665;SDS011;4871;52.004;5.924;2022-12-29T05:10:03;3.00;;;1.10;;
9665;SDS011;4871;52.004;5.924;2022-12-29T05:11:00;3.00;;;1.10;;
9665;SDS011;4871;52.004;5.924;2022-12-29T05:12:02;3.00;;;1.10;;
9665;SDS011;4871;52.004;5.924;2022-12-29T05:13:00;3.00;;;1.10;;
9665;SDS011;4871;52.004;5.924;2022-12-29T05:14:01;3.00;;;1.10;;
9665;SDS011;4871;52.004;5.924;2022-12-29T05:15:02;3.00;;;1.10;;
9665;SDS011;4871;52.004;5.924;2022-12-29T05:16:02;3.00;;;1.10;;
9665;SDS011;4871;52.004;5.924;2022-12-29T05:17:10;3.00;;;1.10;;
9665;SDS011;4871;52.004;5.924;2022-12-29T05:18:04;3.00;;;1.10;;
9665;SDS011;4871;52.004;5.924;2022-12-29T05:19:00;3.00;;;1.10;;
9665;SDS011;4871;52.004;5.924;2022-12-29T05:20:04;3.00;;;1.10;;
9665;SDS011;4871;52.004;5.924;2022-12-29T05:21:00;3.00;;;1.10;;
9665;SDS011;4871;52.004;5.924;2022-12-29T05:22:06;3.00;;;1.10;;
9665;SDS011;4871;52.004;5.924;2022-12-29T05:23:00;3.00;;;1.10;;
9665;SDS011;4871;52.004;5.924;2022-12-29T05:24:03;3.00;;;1.10;;
9665;SDS011;4871;52.004;5.924;2022-12-29T05:25:00;3.50;;;0.90;;
9665;SDS011;4871;52.004;5.924;2022-12-29T05:26:03;3.50;;;0.90;;
9665;SDS011;4871;52.004;5.924;2022-12-29T05:27:00;3.50;;;0.90;;
9665;SDS011;4871;52.004;5.924;2022-12-29T05:28:03;3.50;;;0.90;;
9665;SDS011;4871;52.004;5.924;2022-12-29T05:29:00;3.50;;;0.90;;
9665;SDS011;4871;52.004;5.924;2022-12-29T05:30:02;3.50;;;0.90;;
9665;SDS011;4871;52.004;5.924;2022-12-29T05:31:00;3.50;;;0.90;;
9665;SDS011;4871;52.004;5.924;2022-12-29T05:32:03;3.50;;;0.90;;
9665;SDS011;4871;52.004;5.924;2022-12-29T05:33:00;3.50;;;0.90;;
9665;SDS011;4871;52.004;5.924;2022-12-29T05:34:02;3.50;;;0.90;;
9665;SDS011;4871;52.004;5.924;2022-12-29T05:35:00;3.50;;;0.90;;
9665;SDS011;4871;52.004;5.924;2022-12-29T05:36:04;3.50;;;0.90;;
9665;SDS011;4871;52.004;5.924;2022-12-29T05:37:02;3.50;;;0.90;;
9665;SDS011;4871;52.004;5.924;2022-12-29T05:38:02;3.50;;;0.90;;
9665;SDS011;4871;52.004;5.924;2022-12-29T05:39:00;3.50;;;0.90;;
9665;SDS011;4871;52.004;5.924;2022-12-29T05:40:02;3.50;;;0.90;;
9665;SDS011;4871;52.004;5.924;2022-12-29T05:41:00;3.50;;;0.90;;
9665;SDS011;4871;52.004;5.924;2022-12-29T05:42:02;3.50;;;0.90;;
9665;SDS011;4871;52.004;5.924;2022-12-29T05:43:00;3.50;;;0.90;;
9665;SDS011;4871;52.004;5.924;2022-12-29T05:44:02;3.50;;;0.90;;
9665;SDS011;4871;52.004;5.924;2022-12-29T05:45:00;3.50;;;0.90;;
9665;SDS011;4871;52.004;5.924;2022-12-29T05:46:03;3.50;;;0.90;;
9665;SDS011;4871;52.004;5.924;2022-12-29T05:47:00;3.50;;;0.90;;
9665;SDS011;4871;52.004;5.924;2022-12-29T05:48:07;3.50;;;0.90;;
9665;SDS011;4871;52.004;5.924;2022-12-29T05:49:00;3.50;;;0.90;;
9665;SDS011;4871;52.004;5.924;2022-12-29T05:50:01;3.50;;;0.90;;
9665;SDS011;4871;52.004;5.924;2022-12-29T05:51:00;3.50;;;0.90;;
9665;SDS011;4871;52.004;5.924;2022-12-29T05:52:11;3.50;;;0.90;;
9665;SDS011;4871;52.004;5.924;2022-12-29T05:53:00;3.50;;;0.90;;
9665;SDS011;4871;52.004;5.924;2022-12-29T05:54:01;3.50;;;0.90;;
9665;SDS011;4871;52.004;5.924;2022-12-29T05:55:00;1.40;;;0.90;;
9665;SDS011;4871;52.004;5.924;2022-12-29T05:56:02;1.40;;;0.90;;
9665;SDS011;4871;52.004;5.924;2022-12-29T05:57:00;1.40;;;0.90;;
9665;SDS011;4871;52.004;5.924;2022-12-29T05:58:01;1.40;;;0.90;;
9665;SDS011;4871;52.004;5.924;2022-12-29T05:59:00;1.40;;;0.90;;
9665;SDS011;4871;52.004;5.924;2022-12-29T06:00:02;1.40;;;0.90;;
9665;SDS011;4871;52.004;5.924;2022-12-29T06:01:00;1.40;;;0.90;;
9665;SDS011;4871;52.004;5.924;2022-12-29T06:02:07;1.40;;;0.90;;
9665;SDS011;4871;52.004;5.924;2022-12-29T06:03:00;1.40;;;0.90;;
9665;SDS011;4871;52.004;5.924;2022-12-29T06:04:01;1.40;;;0.90;;
9665;SDS011;4871;52.004;5.924;2022-12-29T06:05:00;1.40;;;0.90;;
9665;SDS011;4871;52.004;5.924;2022-12-29T06:06:01;1.40;;;0.90;;
9665;SDS011;4871;52.004;5.924;2022-12-29T06:07:00;1.40;;;0.90;;
9665;SDS011;4871;52.004;5.924;2022-12-29T06:08:03;1.40;;;0.90;;
9665;SDS011;4871;52.004;5.924;2022-12-29T06:09:00;1.40;;;0.90;;
9665;SDS011;4871;52.004;5.924;2022-12-29T06:10:05;1.40;;;0.90;;
9665;SDS011;4871;52.004;5.924;2022-12-29T06:11:00;1.40;;;0.90;;
9665;SDS011;4871;52.004;5.924;2022-12-29T06:12:01;1.40;;;0.90;;
9665;SDS011;4871;52.004;5.924;2022-12-29T06:13:00;1.40;;;0.90;;
9665;SDS011;4871;52.004;5.924;2022-12-29T06:14:01;1.40;;;0.90;;
9665;SDS011;4871;52.004;5.924;2022-12-29T06:15:00;1.40;;;0.90;;
9665;SDS011;4871;52.004;5.924;2022-12-29T06:16:03;1.40;;;0.90;;
9665;SDS011;4871;52.004;5.924;2022-12-29T06:17:00;1.40;;;0.90;;
9665;SDS011;4871;52.004;5.924;2022-12-29T06:18:04;1.40;;;0.90;;
9665;SDS011;4871;52.004;5.924;2022-12-29T06:19:00;1.40;;;0.90;;
9665;SDS011;4871;52.004;5.924;2022-12-29T06:20:03;1.40;;;0.90;;
9665;SDS011;4871;52.004;5.924;2022-12-29T06:21:01;1.40;;;0.90;;
9665;SDS011;4871;52.004;5.924;2022-12-29T06:22:03;1.40;;;0.90;;
9665;SDS011;4871;52.004;5.924;2022-12-29T06:23:00;1.40;;;0.90;;
9665;SDS011;4871;52.004;5.924;2022-12-29T06:24:03;1.40;;;0.90;;
9665;SDS011;4871;52.004;5.924;2022-12-29T06:25:01;3.10;;;1.10;;
9665;SDS011;4871;52.004;5.924;2022-12-29T06:26:02;3.10;;;1.10;;
9665;SDS011;4871;52.004;5.924;2022-12-29T06:27:00;3.10;;;1.10;;
9665;SDS011;4871;52.004;5.924;2022-12-29T06:28:10;3.10;;;1.10;;
9665;SDS011;4871;52.004;5.924;2022-12-29T06:29:00;3.10;;;1.10;;
9665;SDS011;4871;52.004;5.924;2022-12-29T06:30:01;3.10;;;1.10;;
9665;SDS011;4871;52.004;5.924;2022-12-29T06:31:02;3.10;;;1.10;;
9665;SDS011;4871;52.004;5.924;2022-12-29T06:32:01;3.10;;;1.10;;
9665;SDS011;4871;52.004;5.924;2022-12-29T06:33:00;3.10;;;1.10;;
9665;SDS011;4871;52.004;5.924;2022-12-29T06:34:02;3.10;;;1.10;;
9665;SDS011;4871;52.004;5.924;2022-12-29T06:35:00;3.10;;;1.10;;
9665;SDS011;4871;52.004;5.924;2022-12-29T06:36:01;3.10;;;1.10;;
9665;SDS011;4871;52.004;5.924;2022-12-29T06:37:01;3.10;;;1.10;;
9665;SDS011;4871;52.004;5.924;2022-12-29T06:38:05;3.10;;;1.10;;
9665;SDS011;4871;52.004;5.924;2022-12-29T06:39:00;3.10;;;1.10;;
9665;SDS011;4871;52.004;5.924;2022-12-29T06:40:02;3.10;;;1.10;;
9665;SDS011;4871;52.004;5.924;2022-12-29T06:41:00;3.10;;;1.10;;
9665;SDS011;4871;52.004;5.924;2022-12-29T06:42:01;3.10;;;1.10;;